Latest Coastal Weather Observations for Geraldton Airport

IDW60701

Issued at 6:12 pm WST Thursday 29 January 2015 (issued every 10 minutes, with the page automatically refreshed every 10 minutes)

About coastal observations | Map of coastal stations | Coastal observations for WA | Marine services | Other Formats
Station Details ID: 008315 Name: GERALDTON AIRPORT Lat: -28.80 Lon: 114.70 Height: 29.7 m
Data from the previous 72 hours. | See also: Recent months at Geraldton Airport
Date/Time
WST
Temp

°C
Wind Pressure Rain
since 9am
mm
Weather Cloud Vis
km
Sea
Height
m
Swell
Dir
 
Speed
knots
Gust
knots
hPa Trend Height
m
Period
s
Dir
29/06:00pm 24.9 S 12 16 1007.4 - 0.0 - - 10 - - - -
29/05:30pm 25.1 S 15 20 1007.6 - 0.0 - Mostly clear 10 - - - -
29/05:00pm 25.3 S 18 24 1007.3 - 0.0 - Mostly clear 10 - - - -
29/04:30pm 24.2 S 19 24 1007.0 - 0.0 - Cloudy 10 - - - -
29/04:00pm 24.5 S 19 24 1006.7 - 0.0 - Mostly cloudy 10 - - - -
29/03:30pm 24.9 S 20 24 1006.5 - 0.0 - Partly cloudy 10 - - - -
29/03:24pm 25.1 S 20 24 1006.5 - 0.0 - Mostly cloudy 10 - - - -
29/03:17pm 25.7 SSW 18 22 1006.6 - 0.0 - Mostly cloudy 10 - - - -
29/03:00pm 26.1 SSW 18 23 1006.5 F 0.0 Haze Partly cloudy 20 - - - -
29/02:30pm 25.9 SSW 18 24 1007.0 - 0.0 - Partly cloudy 10 - - - -
29/02:00pm 26.5 SSW 18 25 1007.5 - 0.0 - Partly cloudy 10 - - - -
29/01:30pm 26.4 SSW 18 22 1007.9 - 0.0 - Partly cloudy 10 - - - -
29/01:00pm 26.7 SSW 16 20 1008.3 - 0.0 - Mostly clear 10 - - - -
29/12:30pm 27.0 S 15 21 1008.6 - 0.0 - Partly cloudy 10 - - - -
29/12:00pm 27.0 S 16 21 1008.7 R 0.0 Haze Partly cloudy 20 - - - -
29/11:30am 25.7 S 16 20 1009.2 - 0.0 - Partly cloudy 10 - - - -
29/11:00am 26.1 S 15 20 1009.3 - 0.0 - Partly cloudy 10 - - - -
29/10:30am 25.8 S 15 21 1009.2 - 0.0 - Partly cloudy 10 - - - -
29/09:30am 24.3 SSW 15 18 1009.2 - 0.0 - Mostly cloudy 10 - - - -
29/09:00am 24.4 S 14 19 1008.8 R 0.0 Haze Mostly cloudy 0 - - - -
29/08:30am 24.1 S 14 17 1009.1 - 0.0 - Cloudy 10 - - - -
29/08:00am 23.5 S 13 18 1008.9 - 0.0 - Mostly cloudy 10 - - - -
29/07:30am 23.1 S 12 16 1008.8 - 0.0 - Cloudy 10 - - - -
29/07:00am 22.6 S 13 17 1008.5 - 0.0 - Mostly cloudy 10 - - - -
29/06:30am 22.3 S 11 15 1008.2 - 0.0 - Mostly cloudy 10 - - - -
29/06:00am 22.1 S 13 17 1007.9 R 0.0 Haze Mostly cloudy 15 - - - -
29/05:49am 22.1 S 13 17 1008.0 - 0.0 - Mostly cloudy 10 - - - -
29/05:30am 22.2 S 13 17 1008.1 - 0.0 - Cloudy 10 - - - -
29/05:00am 22.4 S 11 13 1008.0 - 0.0 - Cloudy 10 - - - -
29/04:30am 22.4 S 10 12 1007.7 - 0.0 - Cloudy 10 - - - -
29/04:00am 22.3 S 11 14 1007.2 - 0.0 - Cloudy 10 - - - -
29/03:30am 22.2 S 10 12 1007.0 - 0.0 - Cloudy 10 - - - -
29/03:00am 22.4 S 10 13 1006.9 - 0.0 - Cloudy 10 - - - -
29/02:30am 22.3 S 11 14 1007.0 - 0.0 - Cloudy 10 - - - -
29/02:00am 22.3 S 10 14 1007.1 - 0.0 - Cloudy 10 - - - -
29/01:30am 22.4 S 10 14 1007.2 - 0.0 - Cloudy 10 - - - -
29/01:00am 22.4 S 10 14 1007.5 - 0.0 - Cloudy 10 - - - -
29/12:30am 22.4 S 12 15 1007.7 - 0.0 - Cloudy 10 - - - -
29/12:00am 22.5 S 10 15 1008.3 - 0.0 - Cloudy 10 - - - -
 
Date/Time
WST
Temp

°C
Wind Pressure Rain
since 9am
mm
Weather Cloud Vis
km
Sea
Height
m
Swell
Dir
 
Speed
knots
Gust
knots
hPa Trend Height
m
Period
s
Dir
28/11:30pm 22.4 S 10 14 1008.4 - 0.0 - Cloudy 10 - - - -
28/11:00pm 22.5 S 9 12 1008.5 - 0.0 - Cloudy 10 - - - -
28/10:30pm 22.4 S 10 13 1008.4 - 0.0 - Partly cloudy 10 - - - -
28/10:00pm 22.8 S 10 13 1008.2 - 0.0 - Cloudy 10 - - - -
28/09:30pm 22.9 S 10 13 1008.3 - 0.0 - Cloudy 10 - - - -
28/09:00pm 22.9 S 10 14 1008.0 - 0.0 - Cloudy 10 - - - -
28/08:30pm 23.2 SSW 10 14 1007.8 - 0.0 - Cloudy 10 - - - -
28/08:00pm 23.3 S 12 17 1007.7 - 0.0 - Cloudy 10 - - - -
28/07:30pm 23.3 SSW 14 17 1007.2 - 0.0 - Cloudy 10 - - - -
28/07:00pm 23.3 SSW 13 17 1006.9 - 0.0 - Cloudy 10 - - - -
28/06:30pm 23.6 SW 13 18 1006.6 - 0.0 - Partly cloudy 10 - - - -
28/06:10pm 23.6 SW 14 18 1006.2 - 0.0 - Partly cloudy 10 - - - -
28/06:00pm 24.2 SW 12 17 1006.0 - 0.0 - Cloudy 10 - - - -
28/05:30pm 24.8 SW 12 16 1005.9 - 0.0 - Partly cloudy 10 - - - -
28/05:00pm 25.4 SW 13 17 1005.9 - 0.0 - Partly cloudy 10 - - - -
28/04:45pm 25.2 SW 14 18 1006.0 - 0.0 - Partly cloudy 10 - - - -
28/04:30pm 26.1 WSW 15 18 1005.9 - 0.0 - Mostly clear 10 - - - -
28/04:00pm 26.5 WSW 15 18 1006.0 - 0.0 - Mostly clear 10 - - - -
28/03:30pm 26.9 WSW 15 20 1006.3 - 0.0 - Mostly clear 10 - - - -
28/03:00pm 27.5 WSW 14 17 1006.3 R 0.0 Haze Mostly clear 25 - - - -
28/02:30pm 27.8 W 13 18 1006.4 - 0.0 - Mostly clear 10 - - - -
28/02:00pm 28.2 W 15 20 1006.3 - 0.0 - Mostly clear 10 - - - -
28/01:30pm 28.1 W 15 19 1006.6 - 0.0 - Mostly clear 10 - - - -
28/01:00pm 28.6 W 15 20 1006.6 - 0.0 - Mostly clear 10 - - - -
28/12:30pm 30.1 W 14 18 1006.8 - 0.0 - - 10 - - - -
28/12:00pm 29.2 W 15 18 1007.0 R 0.0 Fine Mostly clear 30 - - - -
28/11:30am 28.6 W 12 17 1007.3 - 0.0 - - 10 - - - -
28/11:00am 29.1 WSW 12 14 1007.3 - 0.0 - - 10 - - - -
28/10:30am 28.9 W 10 14 1007.3 - 0.0 - - 10 - - - -
28/10:00am 28.9 NW 7 10 1007.5 - 0.0 - - 10 - - - -
28/09:30am 27.8 WNW 8 11 1007.4 - 0.0 - - 10 - - - -
28/09:00am 27.5 NW 8 11 1007.1 R 0.0 Fine Partly cloudy 30 - - - -
28/08:30am 25.8 NW 6 9 1007.3 - 0.0 - - 10 - - - -
28/08:00am 25.0 NNW 6 10 1007.3 - 0.0 - - 10 - - - -
28/07:30am 24.1 N 6 8 1007.1 - 0.0 - Mostly clear 10 - - - -
28/07:00am 22.9 N 7 8 1006.9 - 0.0 - Mostly clear 10 - - - -
28/06:30am 21.7 N 5 7 1006.8 - 0.0 - Mostly clear 10 - - - -
28/06:00am 20.0 NNE 5 7 1006.4 R 0.0 Fine Partly cloudy 30 - - - -
28/05:30am 19.8 N 5 6 1005.7 - 0.0 - - 10 - - - -
28/05:00am 20.1 N 6 6 1005.4 - 0.0 - - 10 - - - -
28/04:30am 20.8 N 5 6 1005.3 - 0.0 - - 10 - - - -
28/04:00am 21.4 NW 5 7 1005.2 - 0.0 - - 10 - - - -
28/03:30am 20.9 NW 5 7 1005.3 - 0.0 - - 10 - - - -
28/03:00am 20.2 N 5 7 1004.9 - 0.0 - - 10 - - - -
28/02:30am 20.7 N 4 5 1004.5 - 0.0 - - 10 - - - -
28/02:00am 21.3 NNE 8 11 1004.9 - 0.0 - - 10 - - - -
28/01:30am 20.5 CALM 0 0 1004.6 - 0.0 - - 10 - - - -
28/01:00am 21.5 N 5 7 1004.6 - 0.0 - - 10 - - - -
28/12:30am 22.6 WNW 6 8 1004.6 - 0.0 - - 10 - - - -
28/12:00am 22.9 W 5 6 1004.8 - 0.0 - - 10 - - - -
 
Date/Time
WST
Temp

°C
Wind Pressure Rain
since 9am
mm
Weather Cloud Vis
km
Sea
Height
m
Swell
Dir
 
Speed
knots
Gust
knots
hPa Trend Height
m
Period
s
Dir
27/11:30pm 23.1 WSW 1 3 1005.4 - 0.0 - - 10 - - - -
27/11:00pm 23.0 SSW 5 6 1005.5 - 0.0 - - 10 - - - -
27/10:30pm 23.7 S 5 6 1005.5 - 0.0 - - 10 - - - -
27/10:00pm 24.2 SSE 6 7 1005.5 - 0.0 - - 10 - - - -
27/09:30pm 24.8 S 7 8 1005.6 - 0.0 - - 10 - - - -
27/09:00pm 25.6 S 7 9 1005.6 - 0.0 - - 10 - - - -
27/08:30pm 26.3 SSE 6 9 1005.8 - 0.0 - - 10 - - - -
27/08:00pm 26.8 S 7 9 1005.5 - 0.0 - - 10 - - - -
27/07:30pm 27.7 S 7 9 1005.3 - 0.0 - - 10 - - - -
27/07:00pm 28.6 S 11 15 1005.1 - 0.0 - - 10 - - - -
27/06:30pm 29.4 S 11 14 1005.1 - 0.0 - - 10 - - - -
27/06:00pm 30.0 S 10 12 1005.1 - 0.0 - - 10 - - - -
27/05:30pm 30.4 SSE 7 11 1004.9 - 0.0 - - 10 - - - -
27/05:00pm 30.9 SSW 13 17 1003.8 - 0.0 - - 10 - - - -
27/04:00pm 33.3 SW 18 24 1002.9 - 0.0 - Mostly clear 10 - - - -
27/03:30pm 34.2 SW 20 25 1002.8 - 0.0 - Mostly clear 10 - - - -
27/03:00pm 35.0 SW 17 21 1002.8 F 0.0 Distant precip. Mostly clear 40 - - - -
27/02:30pm 35.1 SW 18 21 1003.1 - 0.0 - Mostly clear 10 - - - -
27/02:00pm 35.2 SSW 17 21 1003.5 - 0.0 - - 10 - - - -
27/01:30pm 35.5 SW 16 20 1003.6 - 0.0 - - 10 - - - -
27/01:00pm 35.2 SW 15 18 1003.8 - 0.0 - - 10 - - - -
27/12:30pm 36.2 SW 13 16 1003.9 - 0.0 - - 10 - - - -
27/12:00pm 35.4 SW 13 16 1004.1 F 0.0 Fine Partly cloudy 40 - - - -
27/11:30am 36.5 WSW 11 15 1004.4 - 0.0 - - 10 - - - -
27/11:00am 36.6 E 5 12 1004.8 - 0.0 - - 10 - - - -
27/10:30am 35.8 N 7 15 1005.1 - 0.0 - - 10 - - - -
27/10:00am 35.3 N 10 17 1005.2 - 0.0 - - 10 - - - -
27/09:30am 33.8 NNE 12 18 1005.5 - 0.0 - - 10 - - - -
27/09:00am 33.0 NNE 11 15 1005.6 R 0.0 Fine Mostly clear 40 - - - -
27/08:30am 32.4 NNE 10 14 1005.7 - 0.0 - - 10 - - - -
27/08:00am 31.0 NNE 11 18 1005.5 - 0.0 - - 10 - - - -
27/07:30am 28.4 ENE 4 5 1005.4 - 0.0 - - 10 - - - -
27/07:00am 24.8 SE 3 6 1005.4 - 0.0 - - 10 - - - -
27/06:30am 23.5 NE 9 11 1005.0 - 0.0 - - 10 - - - -
27/06:00am 21.8 NNE 9 11 1004.6 R 0.0 Haze Mostly clear 25 - - - -
27/05:30am 20.7 NNE 5 6 1004.4 - 0.0 - - 10 - - - -
27/05:00am 19.7 NE 5 6 1003.9 - 0.0 - - 10 - - - -
27/04:30am 19.9 E 5 6 1003.9 - 0.0 - - 10 - - - -
27/04:00am 20.4 CALM 0 0 1003.7 - 0.0 - - 10 - - - -
27/03:30am 20.8 SE 6 7 1003.5 - 0.0 - - 10 - - - -
27/03:00am 21.1 SE 5 6 1003.0 - 0.0 - - 9 - - - -
27/02:30am 21.8 SSE 5 8 1003.1 - 0.0 - - 9 - - - -
27/02:00am 22.3 SSE 9 11 1003.0 - 0.0 - - 10 - - - -
27/01:30am 22.5 SSE 10 13 1003.2 - 0.0 - - 10 - - - -
27/01:00am 22.7 S 11 13 1003.5 - 0.0 - - 10 - - - -
27/12:30am 22.8 S 11 15 1003.8 - 0.0 - - 10 - - - -
27/12:00am 22.9 SSE 11 15 1003.9 - 0.0 - - 10 - - - -
 
Date/Time
WST
Temp

°C
Wind Pressure Rain
since 9am
mm
Weather Cloud Vis
km
Sea
Height
m
Swell
Dir
 
Speed
knots
Gust
knots
hPa Trend Height
m
Period
s
Dir
26/11:30pm 23.1 SSE 14 19 1004.0 - 0.0 - - 10 - - - -
26/11:00pm 23.3 SSE 17 24 1004.1 - 0.0 - - 10 - - - -
26/10:30pm 23.5 SSE 14 18 1004.2 - 0.0 - - 10 - - - -
26/10:00pm 24.0 SSE 18 23 1004.3 - 0.0 - - 10 - - - -
26/09:30pm 24.3 S 20 26 1004.0 - 0.0 - - 10 - - - -
26/09:00pm 24.6 SSE 18 23 1003.8 - 0.0 - - 10 - - - -
26/08:30pm 25.0 SSE 15 19 1004.1 - 0.0 - - 10 - - - -
26/08:00pm 25.5 SSE 18 23 1003.8 - 0.0 - - 10 - - - -
26/07:30pm 25.5 SSE 18 24 1003.7 - 0.0 - - 10 - - - -
26/07:00pm 26.3 S 21 27 1003.2 - 0.0 - - 10 - - - -
26/06:30pm 27.4 S 21 27 1003.0 - 0.0 - - 10 - - - -

Other Formats:

Comma delimited format used in spreadsheet applications
http://www.bom.gov.au/fwo/IDW60701/IDW60701.94403.axf

JavaScript Object Notation format (JSON) in row-major order
http://www.bom.gov.au/fwo/IDW60701/IDW60701.94403.json